Time;durP1;ratioP1;P1;durP2;ratioP2;P2;SDS_P1;SDS_P2;PMS_P1;PMS_P2;Temp;Humidity;BMP_temperature;BMP_pressure;BME280_temperature;BME280_humidity;BME280_pressure;Samples;Min_cycle;Max_cycle;Signal;HPM_P1;HPM_P2
2021/11/12 00:13:13;;;;;;;;;20.50;15.75;;;;;;;;5042339;27;112330;-82
2021/11/12 00:15:46;;;;;;;;;17.25;15.00;;;;;;;;5042860;27;111930;-82
2021/11/12 00:18:11;;;;;;;;;18.50;14.50;;;;;;;;5043807;27;112312;-82
2021/11/12 00:20:37;;;;;;;;;12.50;10.50;;;;;;;;5045661;27;112042;-81
2021/11/12 00:23:02;;;;;;;;;21.75;18.50;;;;;;;;5043146;27;113230;-82
2021/11/12 00:25:27;;;;;;;;;16.50;15.25;;;;;;;;5041877;27;113545;-82
2021/11/12 00:27:53;;;;;;;;;19.50;15.25;;;;;;;;5042020;27;112776;-83
2021/11/12 00:40:51;;;;;;;;;21.00;14.75;;;;;;;;5053283;27;112575;-82
2021/11/12 00:48:35;;;;;;;;;22.25;15.75;;;;;;;;5044175;27;112317;-82
2021/11/12 00:51:17;;;;;;;;;26.75;15.75;;;;;;;;5043912;27;112082;-83
2021/11/12 00:53:54;;;;;;;;;19.25;14.50;;;;;;;;5041792;27;112622;-84
2021/11/12 00:56:20;;;;;;;;;15.50;15.00;;;;;;;;5043436;27;112124;-83
2021/11/12 00:58:45;;;;;;;;;17.00;15.00;;;;;;;;5043388;27;112082;-83
2021/11/12 01:01:11;;;;;;;;;16.50;12.50;;;;;;;;5040625;27;112748;-84
2021/11/12 01:03:36;;;;;;;;;19.75;15.75;;;;;;;;5046300;27;111903;-83
2021/11/12 01:06:02;;;;;;;;;16.75;12.75;;;;;;;;5041409;27;114036;-82
2021/11/12 01:08:27;;;;;;;;;14.25;13.25;;;;;;;;5042282;27;111910;-83
2021/11/12 01:10:53;;;;;;;;;16.50;15.50;;;;;;;;5042230;27;112597;-83
2021/11/12 01:13:19;;;;;;;;;20.75;17.50;;;;;;;;5040088;27;115796;-82
2021/11/12 01:15:44;;;;;;;;;1.75;0.00;;;;;;;;5042261;27;111998;-82
2021/11/12 01:18:09;;;;;;;;;17.75;14.50;;;;;;;;5043587;27;111807;-82
2021/11/12 01:20:35;;;;;;;;;18.25;16.50;;;;;;;;5041634;27;112345;-82
2021/11/12 01:23:00;;;;;;;;;19.50;13.25;;;;;;;;5042519;27;112256;-81
2021/11/12 01:25:26;;;;;;;;;18.25;17.25;;;;;;;;5044962;27;113345;-80
2021/11/12 01:27:52;;;;;;;;;17.00;15.75;;;;;;;;5042285;27;112385;-82
2021/11/12 01:30:17;;;;;;;;;23.00;15.50;;;;;;;;5042132;27;112131;-82
2021/11/12 01:32:43;;;;;;;;;13.00;12.00;;;;;;;;5040757;27;113157;-82
2021/11/12 01:35:11;;;;;;;;;14.75;14.75;;;;;;;;5042268;27;112163;-80
2021/11/12 01:37:37;;;;;;;;;16.00;13.00;;;;;;;;5041887;27;112003;-81
2021/11/12 01:40:07;;;;;;;;;20.50;16.00;;;;;;;;5040758;27;114136;-80
2021/11/12 01:42:50;;;;;;;;;12.00;9.00;;;;;;;;5041957;27;112044;-80
2021/11/12 01:45:16;;;;;;;;;19.25;13.00;;;;;;;;5042788;27;111834;-80
2021/11/12 01:47:58;;;;;;;;;16.25;15.50;;;;;;;;5044408;27;112646;-80
2021/11/12 01:50:24;;;;;;;;;17.00;16.00;;;;;;;;5042594;27;112056;-80
2021/11/12 01:52:51;;;;;;;;;14.25;13.00;;;;;;;;5041167;27;113766;-80
2021/11/12 01:55:28;;;;;;;;;14.50;14.50;;;;;;;;5041642;27;112061;-79
2021/11/12 02:00:28;;;;;;;;;18.75;15.00;;;;;;;;5041045;27;112322;-80
2021/11/12 02:02:56;;;;;;;;;18.00;14.50;;;;;;;;5040732;27;111928;-80
2021/11/12 02:05:22;;;;;;;;;14.75;14.00;;;;;;;;5041844;27;112969;-79
2021/11/12 02:07:47;;;;;;;;;17.50;14.75;;;;;;;;5043714;27;112535;-79
2021/11/12 02:10:17;;;;;;;;;14.50;14.50;;;;;;;;5059911;27;111748;-79
2021/11/12 02:15:25;;;;;;;;;20.50;18.50;;;;;;;;5053151;27;111904;-79
2021/11/12 02:17:58;;;;;;;;;22.25;16.00;;;;;;;;5044448;27;111861;-79
2021/11/12 02:20:38;;;;;;;;;19.00;17.50;;;;;;;;5041312;27;113010;-80
2021/11/12 02:23:05;;;;;;;;;21.00;18.25;;;;;;;;5042172;27;111712;-80
2021/11/12 02:25:38;;;;;;;;;18.50;18.00;;;;;;;;5041542;27;113086;-79
2021/11/12 02:28:08;;;;;;;;;17.00;13.50;;;;;;;;5039022;27;116202;-79
2021/11/12 02:30:34;;;;;;;;;18.75;16.00;;;;;;;;5045326;27;112560;-79
2021/11/12 02:33:11;;;;;;;;;19.25;17.00;;;;;;;;5040226;27;113060;-80
2021/11/12 02:35:38;;;;;;;;;23.00;21.75;;;;;;;;5040650;27;111837;-79
2021/11/12 02:38:06;;;;;;;;;19.25;17.00;;;;;;;;5039701;27;113560;-80
2021/11/12 02:40:32;;;;;;;;;19.25;15.50;;;;;;;;5040130;27;112715;-80
2021/11/12 02:42:57;;;;;;;;;17.50;17.00;;;;;;;;5041241;27;112067;-79
2021/11/12 02:45:23;;;;;;;;;20.50;18.50;;;;;;;;5041368;27;112223;-81
2021/11/12 02:47:48;;;;;;;;;15.75;15.75;;;;;;;;5040000;27;114217;-80
2021/11/12 02:50:15;;;;;;;;;20.50;16.00;;;;;;;;5041989;27;111803;-79
2021/11/12 02:52:42;;;;;;;;;17.50;15.25;;;;;;;;5047045;27;112149;-79
2021/11/12 02:55:07;;;;;;;;;17.00;16.00;;;;;;;;5044972;27;111865;-80
2021/11/12 02:57:35;;;;;;;;;21.25;16.00;;;;;;;;5044865;27;112206;-79
2021/11/12 03:00:00;;;;;;;;;20.50;16.00;;;;;;;;5042145;27;115710;-80
2021/11/12 03:02:26;;;;;;;;;17.50;16.00;;;;;;;;5042697;27;112443;-80
2021/11/12 03:04:51;;;;;;;;;21.00;14.00;;;;;;;;5043778;27;112080;-80
2021/11/12 03:07:17;;;;;;;;;22.50;19.00;;;;;;;;5043506;27;112385;-80
2021/11/12 03:09:42;;;;;;;;;18.50;14.00;;;;;;;;5044426;27;112214;-79
2021/11/12 03:12:08;;;;;;;;;15.75;12.50;;;;;;;;5044602;27;111867;-80
2021/11/12 03:14:34;;;;;;;;;18.00;14.25;;;;;;;;5045096;27;114424;-80
2021/11/12 03:17:00;;;;;;;;;17.00;14.50;;;;;;;;5044725;27;112301;-80
2021/11/12 03:19:27;;;;;;;;;19.00;14.00;;;;;;;;5042599;27;112591;-80
2021/11/12 03:22:02;;;;;;;;;12.50;7.75;;;;;;;;5043937;27;112161;-81
2021/11/12 03:24:38;;;;;;;;;20.25;16.25;;;;;;;;5044230;27;112986;-80
2021/11/12 03:27:13;;;;;;;;;20.00;15.75;;;;;;;;5042943;27;113837;-81
2021/11/12 04:02:47;;;;;;;;;15.00;15.00;;;;;;;;5047015;27;112404;-81
2021/11/12 04:20:38;;;;;;;;;15.00;15.00;;;;;;;;5057153;27;112521;-81
2021/11/12 05:44:38;;;;;;;;;18.50;15.00;;;;;;;;5041532;27;112231;-82
2021/11/12 05:57:22;;;;;;;;;19.50;18.75;;;;;;;;5041763;27;111992;-82
2021/11/12 05:59:47;;;;;;;;;17.75;15.75;;;;;;;;5044582;27;112647;-82
2021/11/12 06:02:13;;;;;;;;;21.25;18.00;;;;;;;;5041167;27;113201;-82
2021/11/12 06:04:39;;;;;;;;;26.75;20.00;;;;;;;;5040860;27;112668;-83
2021/11/12 06:07:05;;;;;;;;;20.50;20.50;;;;;;;;5041503;27;111889;-83
2021/11/12 06:09:31;;;;;;;;;27.00;21.00;;;;;;;;5041860;27;112126;-82
2021/11/12 06:11:56;;;;;;;;;21.75;18.25;;;;;;;;5039071;27;113816;-81
2021/11/12 06:14:22;;;;;;;;;22.50;20.00;;;;;;;;5041384;27;113163;-83
2021/11/12 06:16:49;;;;;;;;;20.50;17.25;;;;;;;;5042565;27;112185;-82
2021/11/12 06:19:15;;;;;;;;;25.00;21.00;;;;;;;;5040638;27;113799;-81
2021/11/12 06:21:40;;;;;;;;;21.00;19.75;;;;;;;;5046400;27;111965;-82
2021/11/12 06:24:05;;;;;;;;;22.50;19.50;;;;;;;;5040434;27;112164;-81
2021/11/12 06:26:31;;;;;;;;;25.25;22.50;;;;;;;;5043516;27;112284;-81
2021/11/12 06:28:58;;;;;;;;;22.25;18.00;;;;;;;;5048661;27;111936;-81
2021/11/12 06:31:24;;;;;;;;;27.00;20.00;;;;;;;;5060989;27;112114;-78
2021/11/12 06:33:50;;;;;;;;;28.00;21.00;;;;;;;;5064516;27;113687;-83
2021/11/12 06:36:16;;;;;;;;;24.00;18.00;;;;;;;;5059412;27;112307;-88
2021/11/12 06:38:41;;;;;;;;;25.25;21.50;;;;;;;;5051579;27;112382;-92
2021/11/12 06:41:12;;;;;;;;;30.25;25.00;;;;;;;;5046399;27;111806;-79
2021/11/12 06:43:47;;;;;;;;;25.50;24.25;;;;;;;;5047069;27;112905;-79
2021/11/12 06:51:41;;;;;;;;;8.50;7.75;;;;;;;;5049391;27;112357;-90
2021/11/12 06:54:06;;;;;;;;;23.50;18.50;;;;;;;;5054269;27;111826;-79
2021/11/12 06:56:32;;;;;;;;;22.00;19.75;;;;;;;;5058928;27;111778;-79
2021/11/12 06:58:57;;;;;;;;;21.25;21.25;;;;;;;;4992798;27;112518;-82
2021/11/12 07:01:24;;;;;;;;;29.50;22.00;;;;;;;;5044399;27;111838;-85
2021/11/12 07:03:50;;;;;;;;;21.25;17.50;;;;;;;;5046239;27;113139;-84
2021/11/12 07:06:16;;;;;;;;;27.50;18.00;;;;;;;;5037086;27;112321;-75
2021/11/12 07:08:43;;;;;;;;;21.00;19.50;;;;;;;;5044544;27;113253;-82
2021/11/12 07:11:09;;;;;;;;;25.75;21.00;;;;;;;;5042585;27;112934;-79
2021/11/12 07:13:35;;;;;;;;;27.25;20.25;;;;;;;;5043709;27;112052;-83
2021/11/12 07:16:00;;;;;;;;;25.00;22.50;;;;;;;;5049189;27;112506;-84
2021/11/12 07:18:26;;;;;;;;;26.50;18.75;;;;;;;;5049017;27;112452;-83
2021/11/12 07:20:52;;;;;;;;;20.25;19.75;;;;;;;;5044081;27;111925;-87
2021/11/12 07:23:23;;;;;;;;;21.25;20.25;;;;;;;;5048635;27;113296;-85
2021/11/12 07:25:48;;;;;;;;;20.25;20.25;;;;;;;;5050936;27;112111;-84
2021/11/12 07:28:14;;;;;;;;;24.50;21.50;;;;;;;;5045494;27;112431;-87
2021/11/12 07:30:43;;;;;;;;;21.75;18.00;;;;;;;;5044049;27;112284;-87
2021/11/12 07:33:10;;;;;;;;;21.50;18.00;;;;;;;;5043300;27;111935;-84
2021/11/12 07:35:44;;;;;;;;;25.25;21.25;;;;;;;;5044061;27;112394;-85
2021/11/12 07:38:13;;;;;;;;;28.75;23.25;;;;;;;;5045651;27;112655;-88
2021/11/12 07:44:18;;;;;;;;;29.25;22.75;;;;;;;;5023244;27;112249;-83
2021/11/12 07:48:43;;;;;;;;;30.00;23.00;;;;;;;;5034560;27;112692;-74
2021/11/12 07:51:08;;;;;;;;;24.50;21.00;;;;;;;;5020645;28;112545;-77
2021/11/12 07:53:34;;;;;;;;;21.00;12.25;;;;;;;;5020980;27;113787;-76
2021/11/12 07:56:00;;;;;;;;;28.25;21.00;;;;;;;;5021721;28;112517;-77
2021/11/12 07:58:25;;;;;;;;;21.00;19.25;;;;;;;;5017893;27;112898;-74
2021/11/12 08:00:51;;;;;;;;;30.00;24.00;;;;;;;;5021480;28;111903;-70
2021/11/12 08:03:18;;;;;;;;;29.50;24.00;;;;;;;;5020401;28;111993;-73
2021/11/12 08:05:45;;;;;;;;;28.50;24.00;;;;;;;;5019471;27;113216;-75
2021/11/12 08:08:14;;;;;;;;;24.25;21.75;;;;;;;;5021219;27;111826;-77
2021/11/12 08:10:52;;;;;;;;;24.50;24.50;;;;;;;;5022150;28;113660;-77
2021/11/12 08:13:45;;;;;;;;;20.00;16.75;;;;;;;;5019313;28;112284;-76
2021/11/12 08:16:41;;;;;;;;;27.25;21.00;;;;;;;;5021906;28;112239;-75
2021/11/12 08:19:10;;;;;;;;;20.00;18.75;;;;;;;;5020038;28;112539;-77
2021/11/12 08:21:42;;;;;;;;;25.25;23.50;;;;;;;;5021678;27;111857;-76
2021/11/12 08:26:41;;;;;;;;;24.50;16.25;;;;;;;;5020448;28;112461;-77
2021/11/12 08:31:43;;;;;;;;;29.25;23.00;;;;;;;;5028949;27;112167;-72
2021/11/12 08:34:16;;;;;;;;;17.00;16.25;;;;;;;;5040650;27;112601;-76
2021/11/12 08:42:09;;;;;;;;;23.75;19.00;;;;;;;;5027410;27;112513;-76
2021/11/12 08:44:39;;;;;;;;;23.00;20.00;;;;;;;;5038611;27;112362;-74
2021/11/12 08:47:20;;;;;;;;;27.50;23.00;;;;;;;;5037703;27;113691;-74
2021/11/12 08:49:46;;;;;;;;;26.25;20.00;;;;;;;;5037608;27;112270;-73
2021/11/12 08:52:14;;;;;;;;;30.00;24.50;;;;;;;;5039577;27;113128;-72
2021/11/12 08:54:43;;;;;;;;;21.50;21.25;;;;;;;;5026349;27;115829;-73
2021/11/12 08:57:11;;;;;;;;;27.25;23.25;;;;;;;;5043923;27;112169;-72
2021/11/12 08:59:39;;;;;;;;;27.25;19.75;;;;;;;;5040244;27;113740;-73
2021/11/12 09:02:08;;;;;;;;;24.75;23.25;;;;;;;;5039303;27;112193;-73
2021/11/12 09:04:33;;;;;;;;;22.50;18.00;;;;;;;;5040826;27;113055;-73
2021/11/12 09:06:59;;;;;;;;;30.00;23.50;;;;;;;;5039919;27;112428;-77
2021/11/12 09:09:25;;;;;;;;;25.50;22.00;;;;;;;;5041319;27;111999;-77
2021/11/12 09:11:51;;;;;;;;;29.00;24.50;;;;;;;;5040710;27;113155;-77
2021/11/12 09:14:20;;;;;;;;;29.75;25.50;;;;;;;;5038403;27;113772;-76
2021/11/12 09:16:46;;;;;;;;;31.50;25.25;;;;;;;;5036826;27;111989;-81
2021/11/12 09:19:14;;;;;;;;;28.75;25.00;;;;;;;;5038715;27;112567;-78
2021/11/12 09:21:39;;;;;;;;;35.25;26.50;;;;;;;;5036083;27;112150;-78
2021/11/12 09:24:05;;;;;;;;;28.50;26.00;;;;;;;;5039194;27;112112;-76
2021/11/12 09:26:32;;;;;;;;;25.75;24.00;;;;;;;;5027754;27;115901;-80
2021/11/12 09:28:58;;;;;;;;;28.25;21.75;;;;;;;;5039858;27;112580;-80
2021/11/12 09:31:23;;;;;;;;;25.75;22.00;;;;;;;;5039667;27;112778;-77
2021/11/12 09:33:49;;;;;;;;;26.00;25.00;;;;;;;;5030777;27;114990;-79
2021/11/12 09:36:14;;;;;;;;;28.25;26.25;;;;;;;;5020696;28;112050;-81
2021/11/12 09:38:41;;;;;;;;;22.00;17.00;;;;;;;;5023605;28;111991;-87
2021/11/12 09:41:07;;;;;;;;;33.75;25.50;;;;;;;;5020305;27;111934;-81
2021/11/12 09:43:32;;;;;;;;;28.75;23.00;;;;;;;;5020110;27;111891;-81
2021/11/12 09:45:58;;;;;;;;;29.50;26.75;;;;;;;;5019765;27;112630;-81
2021/11/12 09:48:24;;;;;;;;;29.50;21.50;;;;;;;;5020099;27;111882;-81
2021/11/12 09:50:50;;;;;;;;;20.00;17.00;;;;;;;;5020635;27;113013;-78
2021/11/12 09:53:15;;;;;;;;;26.50;21.75;;;;;;;;5019422;27;112287;-81
2021/11/12 09:55:41;;;;;;;;;27.50;22.00;;;;;;;;5021161;27;112488;-81
2021/11/12 09:58:07;;;;;;;;;25.75;23.75;;;;;;;;5040668;27;111975;-81
2021/11/12 10:00:34;;;;;;;;;27.75;21.25;;;;;;;;5046416;27;112437;-81
2021/11/12 10:03:02;;;;;;;;;28.00;24.50;;;;;;;;5042521;27;112089;-81
2021/11/12 10:05:39;;;;;;;;;23.00;21.00;;;;;;;;5039772;27;112564;-82
2021/11/12 10:08:17;;;;;;;;;24.50;19.25;;;;;;;;5041950;27;111970;-81
2021/11/12 10:10:44;;;;;;;;;27.50;22.25;;;;;;;;5041575;27;112434;-82
2021/11/12 10:13:20;;;;;;;;;23.75;21.00;;;;;;;;5039278;27;112914;-82
2021/11/12 10:15:51;;;;;;;;;23.25;21.25;;;;;;;;5041310;27;112197;-84
2021/11/12 10:18:16;;;;;;;;;23.25;22.00;;;;;;;;5038408;27;115162;-84
2021/11/12 10:20:55;;;;;;;;;21.50;20.00;;;;;;;;5037754;27;115827;-82
2021/11/12 10:23:20;;;;;;;;;20.75;20.75;;;;;;;;5044283;27;112191;-84
2021/11/12 10:25:53;;;;;;;;;22.50;20.00;;;;;;;;5038876;27;113019;-82
2021/11/12 10:28:37;;;;;;;;;22.00;22.00;;;;;;;;5040505;27;112037;-85
2021/11/12 10:31:16;;;;;;;;;24.25;23.00;;;;;;;;5038770;27;114635;-84
2021/11/12 10:33:41;;;;;;;;;22.50;21.75;;;;;;;;5038736;27;114793;-84
2021/11/12 10:36:07;;;;;;;;;27.25;21.00;;;;;;;;5039910;27;112085;-86
2021/11/12 10:38:36;;;;;;;;;23.00;22.50;;;;;;;;5037093;27;112863;-84
2021/11/12 10:41:12;;;;;;;;;21.50;19.25;;;;;;;;5034707;27;112891;-84
2021/11/12 10:43:37;;;;;;;;;24.25;20.25;;;;;;;;5040487;27;111695;-83
2021/11/12 10:46:06;;;;;;;;;19.00;18.00;;;;;;;;5042712;27;113024;-84
2021/11/12 10:48:31;;;;;;;;;40.00;36.25;;;;;;;;5038875;27;111862;-74
2021/11/12 10:51:11;;;;;;;;;29.00;27.00;;;;;;;;5039229;27;112165;-75
2021/11/12 10:53:43;;;;;;;;;21.75;20.25;;;;;;;;5038489;27;112927;-73
2021/11/12 10:56:09;;;;;;;;;15.75;14.00;;;;;;;;5039934;27;112323;-73
2021/11/12 10:58:34;;;;;;;;;20.50;15.50;;;;;;;;5039661;27;113118;-74
2021/11/12 11:00:59;;;;;;;;;16.00;14.75;;;;;;;;5038406;27;112312;-72
2021/11/12 11:03:26;;;;;;;;;12.75;12.75;;;;;;;;5039447;27;111958;-74
2021/11/12 11:05:55;;;;;;;;;12.00;10.00;;;;;;;;5039321;27;111863;-73
2021/11/12 11:08:22;;;;;;;;;12.00;10.00;;;;;;;;5041765;27;112135;-72
2021/11/12 11:10:52;;;;;;;;;13.75;12.50;;;;;;;;5039813;27;111795;-72
2021/11/12 11:13:19;;;;;;;;;8.67;8.00;;;;;;;;5041681;27;112521;-73
2021/11/12 11:15:49;;;;;;;;;13.75;9.75;;;;;;;;5042483;27;111927;-72
2021/11/12 11:18:22;;;;;;;;;12.00;9.75;;;;;;;;5043220;27;111954;-73
2021/11/12 11:20:48;;;;;;;;;9.50;8.50;;;;;;;;5041485;27;112561;-73
2021/11/12 11:23:14;;;;;;;;;12.25;12.25;;;;;;;;5041963;27;111834;-72
2021/11/12 11:25:47;;;;;;;;;10.75;10.75;;;;;;;;5043105;27;112358;-72
2021/11/12 11:28:13;;;;;;;;;12.00;10.00;;;;;;;;5045581;27;113125;-72
2021/11/12 11:30:38;;;;;;;;;12.00;10.50;;;;;;;;5042602;27;113222;-77
2021/11/12 11:33:03;;;;;;;;;12.00;12.00;;;;;;;;5039716;27;115576;-76
2021/11/12 11:35:29;;;;;;;;;14.75;13.50;;;;;;;;5042656;27;112548;-75
2021/11/12 11:37:54;;;;;;;;;12.75;12.00;;;;;;;;5042682;27;112020;-78
2021/11/12 11:40:20;;;;;;;;;11.75;11.25;;;;;;;;5041696;27;112511;-76
2021/11/12 11:42:46;;;;;;;;;14.75;11.75;;;;;;;;5043110;27;111955;-79
2021/11/12 11:45:12;;;;;;;;;13.00;12.25;;;;;;;;5042091;27;112846;-76
2021/11/12 11:47:39;;;;;;;;;13.75;13.75;;;;;;;;5040883;27;112926;-76
2021/11/12 11:50:20;;;;;;;;;14.50;10.50;;;;;;;;5046241;27;112014;-76
2021/11/12 11:52:46;;;;;;;;;12.50;12.50;;;;;;;;5040147;27;114473;-79
2021/11/12 11:55:29;;;;;;;;;28.75;27.75;;;;;;;;5042568;27;111708;-76
2021/11/12 11:57:54;;;;;;;;;15.50;14.00;;;;;;;;5042524;27;111945;-76
2021/11/12 12:00:25;;;;;;;;;16.75;15.25;;;;;;;;5041620;27;112465;-76
2021/11/12 12:03:11;;;;;;;;;18.50;18.00;;;;;;;;5041806;27;112270;-76
2021/11/12 12:05:55;;;;;;;;;16.75;14.25;;;;;;;;5042027;27;120173;-74
2021/11/12 12:08:31;;;;;;;;;14.25;12.25;;;;;;;;5041102;27;112481;-75
2021/11/12 12:11:15;;;;;;;;;15.50;12.25;;;;;;;;5041923;27;111969;-75
2021/11/12 12:13:40;;;;;;;;;13.75;13.75;;;;;;;;5044325;27;112359;-76
2021/11/12 12:16:06;;;;;;;;;13.50;13.00;;;;;;;;5041411;27;112352;-76
2021/11/12 12:18:32;;;;;;;;;13.25;10.75;;;;;;;;5041865;27;112838;-75
2021/11/12 12:30:53;;;;;;;;;11.25;11.25;;;;;;;;5041060;27;112383;-77
2021/11/12 12:30:58;;;;;;;;;17.25;13.00;;;;;;;;5040320;27;113972;-79
2021/11/12 12:34:25;;;;;;;;;16.75;12.25;;;;;;;;5040898;27;112258;-80
2021/11/12 13:22:37;;;;;;;;;14.25;12.25;;;;;;;;5016309;28;112962;-76
2021/11/12 13:25:04;;;;;;;;;16.25;13.25;;;;;;;;5014480;28;113767;-77
2021/11/12 13:27:29;;;;;;;;;16.00;12.50;;;;;;;;5022595;27;112274;-77
2021/11/12 13:29:55;;;;;;;;;16.50;15.50;;;;;;;;5017388;27;113591;-76
2021/11/12 13:32:20;;;;;;;;;11.75;11.50;;;;;;;;5019047;27;112440;-75
2021/11/12 13:34:46;;;;;;;;;16.75;12.25;;;;;;;;5019517;27;112531;-76
2021/11/12 13:37:13;;;;;;;;;17.75;13.00;;;;;;;;5019763;28;112469;-78
2021/11/12 13:39:39;;;;;;;;;17.00;15.25;;;;;;;;5020253;27;112316;-77
2021/11/12 13:42:04;;;;;;;;;18.25;15.00;;;;;;;;5019823;27;112176;-77
2021/11/12 13:44:31;;;;;;;;;15.50;13.75;;;;;;;;5019148;28;113231;-77
2021/11/12 13:47:03;;;;;;;;;16.75;13.75;;;;;;;;5018889;28;112130;-75
2021/11/12 13:49:32;;;;;;;;;18.75;17.00;;;;;;;;5019187;28;112547;-77
2021/11/12 13:51:59;;;;;;;;;20.00;16.50;;;;;;;;5018974;28;112179;-77
2021/11/12 13:54:24;;;;;;;;;18.50;16.75;;;;;;;;5018361;28;112244;-75
2021/11/12 13:56:49;;;;;;;;;21.75;18.25;;;;;;;;5017317;28;112313;-75
2021/11/12 13:59:15;;;;;;;;;15.00;14.75;;;;;;;;5017790;28;111800;-76
2021/11/12 14:01:41;;;;;;;;;17.50;16.25;;;;;;;;5012566;27;114506;-76
2021/11/12 14:04:25;;;;;;;;;18.25;17.00;;;;;;;;5014965;28;112973;-76
2021/11/12 14:06:53;;;;;;;;;17.25;15.00;;;;;;;;5017261;28;111875;-76
2021/11/12 14:09:19;;;;;;;;;16.00;16.00;;;;;;;;5013988;28;113343;-78
2021/11/12 14:11:44;;;;;;;;;18.00;16.75;;;;;;;;5018266;28;112751;-75
2021/11/12 14:14:17;;;;;;;;;18.25;15.50;;;;;;;;5019486;28;112787;-75
2021/11/12 14:16:54;;;;;;;;;19.00;18.00;;;;;;;;5015998;27;114179;-77
2021/11/12 14:22:17;;;;;;;;;23.00;19.00;;;;;;;;5019950;27;111835;-78
2021/11/12 14:24:49;;;;;;;;;15.75;15.25;;;;;;;;5019546;27;114104;-77
2021/11/12 14:27:36;;;;;;;;;19.75;18.50;;;;;;;;5019608;27;111839;-74
2021/11/12 14:30:15;;;;;;;;;19.75;17.75;;;;;;;;5019864;27;113582;-76
2021/11/12 14:51:34;;;;;;;;;28.75;24.75;;;;;;;;5002745;28;111846;-76
2021/11/12 14:54:04;;;;;;;;;27.00;25.25;;;;;;;;5001189;28;114316;-78
2021/11/12 14:56:31;;;;;;;;;30.50;23.00;;;;;;;;5001973;28;111865;-80
2021/11/12 14:59:14;;;;;;;;;22.25;22.25;;;;;;;;5006020;28;112458;-79
2021/11/12 15:01:39;;;;;;;;;30.50;25.00;;;;;;;;5002157;28;111959;-79
2021/11/12 15:04:05;;;;;;;;;29.25;25.75;;;;;;;;5008482;28;112157;-79
2021/11/12 15:06:32;;;;;;;;;26.75;20.75;;;;;;;;5015320;28;113648;-80
2021/11/12 15:09:05;;;;;;;;;29.50;26.00;;;;;;;;5013880;28;112003;-75
2021/11/12 15:11:31;;;;;;;;;25.75;22.75;;;;;;;;5003057;28;113128;-87
2021/11/12 15:14:09;;;;;;;;;27.50;25.00;;;;;;;;5007432;28;113458;-88
2021/11/12 15:16:37;;;;;;;;;30.75;30.25;;;;;;;;5022361;27;112033;-86
2021/11/12 15:19:04;;;;;;;;;27.75;26.25;;;;;;;;5023230;27;112537;-86
2021/11/12 15:21:35;;;;;;;;;37.00;31.00;;;;;;;;5025704;28;112764;-87
2021/11/12 15:26:44;;;;;;;;;28.25;25.00;;;;;;;;5021929;28;112354;-86
2021/11/12 15:29:35;;;;;;;;;33.75;31.50;;;;;;;;5021288;28;112275;-87
2021/11/12 21:45:33;;;;;;;;;45.00;36.25;;;;;;;;5019887;27;112513;-76
2021/11/12 21:47:58;;;;;;;;;39.75;34.75;;;;;;;;5021078;27;111808;-76
2021/11/12 21:50:24;;;;;;;;;44.75;38.75;;;;;;;;5020952;27;112202;-76
2021/11/12 21:52:49;;;;;;;;;38.50;35.25;;;;;;;;5020117;27;114389;-75
2021/11/12 21:55:14;;;;;;;;;41.75;38.50;;;;;;;;5020387;27;111702;-76
2021/11/12 21:57:39;;;;;;;;;37.25;35.25;;;;;;;;5020850;27;111963;-86
2021/11/12 22:00:06;;;;;;;;;37.75;35.25;;;;;;;;5018944;27;112711;-80
2021/11/12 22:02:32;;;;;;;;;48.75;38.75;;;;;;;;5024311;28;112208;-80
2021/11/12 22:04:57;;;;;;;;;48.00;40.00;;;;;;;;5017898;28;115723;-80
2021/11/12 22:07:22;;;;;;;;;50.25;40.50;;;;;;;;5020038;27;112115;-81
2021/11/12 22:09:48;;;;;;;;;52.50;42.00;;;;;;;;5020150;27;111946;-85
2021/11/12 22:12:13;;;;;;;;;50.25;42.50;;;;;;;;5018680;27;113309;-79
2021/11/12 22:14:38;;;;;;;;;50.25;42.50;;;;;;;;5019615;27;111983;-80
2021/11/12 22:17:08;;;;;;;;;41.25;37.75;;;;;;;;5019562;27;112489;-80
2021/11/12 22:19:33;;;;;;;;;46.50;42.25;;;;;;;;5018784;28;112568;-79
2021/11/12 22:21:59;;;;;;;;;47.75;42.00;;;;;;;;5019212;27;112089;-80
2021/11/12 22:24:24;;;;;;;;;46.75;39.25;;;;;;;;5023402;27;111974;-79
2021/11/12 22:26:50;;;;;;;;;46.50;39.75;;;;;;;;5020596;27;111852;-80
2021/11/12 22:29:16;;;;;;;;;48.50;41.00;;;;;;;;5020259;27;111778;-81
2021/11/12 22:31:41;;;;;;;;;43.25;39.50;;;;;;;;5019222;28;112362;-79
2021/11/12 22:34:06;;;;;;;;;45.00;39.00;;;;;;;;5019861;27;111898;-80
2021/11/12 22:36:32;;;;;;;;;47.75;39.00;;;;;;;;5019550;28;112800;-80
2021/11/12 22:38:57;;;;;;;;;44.00;38.75;;;;;;;;5019030;28;112409;-80
2021/11/12 22:41:22;;;;;;;;;44.75;40.00;;;;;;;;5018069;27;112203;-80
2021/11/12 22:43:51;;;;;;;;;41.00;37.00;;;;;;;;5019634;27;112206;-79
2021/11/12 22:46:18;;;;;;;;;36.25;33.00;;;;;;;;5022902;27;112547;-80
2021/11/12 22:48:44;;;;;;;;;28.75;26.00;;;;;;;;5019519;28;113091;-80
2021/11/12 22:51:10;;;;;;;;;35.25;28.75;;;;;;;;5018840;27;114011;-79
2021/11/12 22:53:35;;;;;;;;;34.50;29.75;;;;;;;;5020307;27;111881;-82
2021/11/12 22:56:00;;;;;;;;;31.00;25.00;;;;;;;;5016801;27;113114;-82
2021/11/12 22:58:25;;;;;;;;;31.50;24.50;;;;;;;;5019496;28;112303;-82
2021/11/12 23:00:51;;;;;;;;;27.00;23.75;;;;;;;;5010941;27;112069;-81
2021/11/12 23:03:17;;;;;;;;;25.75;25.00;;;;;;;;5004674;28;111785;-79
2021/11/12 23:05:42;;;;;;;;;21.75;21.00;;;;;;;;4997081;28;112788;-80
2021/11/12 23:08:07;;;;;;;;;21.25;18.50;;;;;;;;5003028;28;111844;-81
2021/11/12 23:10:33;;;;;;;;;26.75;24.50;;;;;;;;4998502;28;113650;-82
2021/11/12 23:13:00;;;;;;;;;29.75;25.00;;;;;;;;4999825;28;111794;-82
2021/11/12 23:15:26;;;;;;;;;29.00;24.75;;;;;;;;4999591;28;112495;-81
2021/11/12 23:17:53;;;;;;;;;29.75;23.00;;;;;;;;4999085;28;112437;-82
2021/11/12 23:20:19;;;;;;;;;25.00;24.00;;;;;;;;4999423;28;112397;-82
2021/11/12 23:22:44;;;;;;;;;27.75;26.25;;;;;;;;4999335;28;112242;-82
2021/11/12 23:25:10;;;;;;;;;25.75;24.00;;;;;;;;4998037;28;112346;-81
2021/11/12 23:27:35;;;;;;;;;27.50;25.50;;;;;;;;5002171;28;112400;-81
2021/11/12 23:30:00;;;;;;;;;24.50;22.75;;;;;;;;4997704;28;114110;-80
2021/11/12 23:32:25;;;;;;;;;24.25;20.75;;;;;;;;4999952;28;112171;-80
2021/11/12 23:34:51;;;;;;;;;22.25;19.50;;;;;;;;5001724;28;114909;-80
2021/11/12 23:37:16;;;;;;;;;20.00;20.00;;;;;;;;5002118;28;112380;-80
2021/11/12 23:39:41;;;;;;;;;28.50;22.25;;;;;;;;5003276;28;111967;-80
2021/11/12 23:42:07;;;;;;;;;18.75;18.25;;;;;;;;5002745;28;113067;-80
2021/11/12 23:44:32;;;;;;;;;25.75;20.75;;;;;;;;5001814;28;112330;-81
2021/11/12 23:46:57;;;;;;;;;20.50;18.50;;;;;;;;5002639;28;112195;-82
2021/11/12 23:49:23;;;;;;;;;24.50;20.75;;;;;;;;5005614;28;111743;-81
2021/11/12 23:51:48;;;;;;;;;23.50;22.50;;;;;;;;5002771;28;111720;-79
2021/11/12 23:54:15;;;;;;;;;28.00;23.75;;;;;;;;5002842;28;112227;-80
2021/11/12 23:56:40;;;;;;;;;24.50;21.00;;;;;;;;5001026;28;112364;-80
2021/11/12 23:59:06;;;;;;;;;30.25;21.75;;;;;;;;5000956;28;113298;-80
